sensor_id;sensor_type;location;lat;lon;timestamp;temperature;humidity
51305;HTU21D;37392;50.964;6.952;2023-01-19T00:00:48;-0.76;112.59
51305;HTU21D;37392;50.964;6.952;2023-01-19T00:03:14;-0.77;112.74
51305;HTU21D;37392;50.964;6.952;2023-01-19T00:05:43;-0.76;113.09
51305;HTU21D;37392;50.964;6.952;2023-01-19T00:08:10;-0.76;113.04
51305;HTU21D;37392;50.964;6.952;2023-01-19T00:10:43;-0.83;113.01
51305;HTU21D;37392;50.964;6.952;2023-01-19T00:13:11;-0.77;113.27
51305;HTU21D;37392;50.964;6.952;2023-01-19T00:15:37;-0.67;113.45
51305;HTU21D;37392;50.964;6.952;2023-01-19T00:18:03;-0.68;113.26
51305;HTU21D;37392;50.964;6.952;2023-01-19T00:20:29;-0.65;113.22
51305;HTU21D;37392;50.964;6.952;2023-01-19T00:23:00;-0.47;113.19
51305;HTU21D;37392;50.964;6.952;2023-01-19T00:25:26;-0.38;112.69
51305;HTU21D;37392;50.964;6.952;2023-01-19T00:27:52;-0.20;111.88
51305;HTU21D;37392;50.964;6.952;2023-01-19T00:30:18;-0.12;111.49
51305;HTU21D;37392;50.964;6.952;2023-01-19T00:32:43;-0.12;111.10
51305;HTU21D;37392;50.964;6.952;2023-01-19T00:35:09;-0.05;110.81
51305;HTU21D;37392;50.964;6.952;2023-01-19T00:37:34;-0.05;110.81
51305;HTU21D;37392;50.964;6.952;2023-01-19T00:40:00;0.05;110.78
51305;HTU21D;37392;50.964;6.952;2023-01-19T00:42:26;0.13;110.77
51305;HTU21D;37392;50.964;6.952;2023-01-19T00:45:14;0.25;110.47
51305;HTU21D;37392;50.964;6.952;2023-01-19T00:47:43;0.28;110.11
51305;HTU21D;37392;50.964;6.952;2023-01-19T00:50:10;0.32;110.00
51305;HTU21D;37392;50.964;6.952;2023-01-19T00:52:40;0.36;109.72
51305;HTU21D;37392;50.964;6.952;2023-01-19T00:55:07;0.31;109.48
51305;HTU21D;37392;50.964;6.952;2023-01-19T00:57:33;0.30;109.49
51305;HTU21D;37392;50.964;6.952;2023-01-19T00:59:59;0.30;109.55
51305;HTU21D;37392;50.964;6.952;2023-01-19T01:02:26;0.36;109.55
51305;HTU21D;37392;50.964;6.952;2023-01-19T01:04:51;0.36;109.63
51305;HTU21D;37392;50.964;6.952;2023-01-19T01:07:20;0.44;109.59
51305;HTU21D;37392;50.964;6.952;2023-01-19T01:09:46;0.54;109.38
51305;HTU21D;37392;50.964;6.952;2023-01-19T01:12:11;0.64;109.15
51305;HTU21D;37392;50.964;6.952;2023-01-19T01:14:37;0.74;108.79
51305;HTU21D;37392;50.964;6.952;2023-01-19T01:17:03;0.73;108.45
51305;HTU21D;37392;50.964;6.952;2023-01-19T01:19:29;0.61;108.29
51305;HTU21D;37392;50.964;6.952;2023-01-19T01:21:54;0.46;108.36
51305;HTU21D;37392;50.964;6.952;2023-01-19T01:24:20;0.30;108.76
51305;HTU21D;37392;50.964;6.952;2023-01-19T01:26:46;0.16;109.19
51305;HTU21D;37392;50.964;6.952;2023-01-19T01:29:11;0.18;109.65
51305;HTU21D;37392;50.964;6.952;2023-01-19T01:31:37;0.10;109.55
51305;HTU21D;37392;50.964;6.952;2023-01-19T01:34:03;0.09;109.90
51305;HTU21D;37392;50.964;6.952;2023-01-19T01:36:29;0.13;110.05
51305;HTU21D;37392;50.964;6.952;2023-01-19T01:38:57;0.16;110.11
51305;HTU21D;37392;50.964;6.952;2023-01-19T01:41:23;0.21;110.06
51305;HTU21D;37392;50.964;6.952;2023-01-19T01:43:53;0.35;109.85
51305;HTU21D;37392;50.964;6.952;2023-01-19T01:46:24;0.50;109.40
51305;HTU21D;37392;50.964;6.952;2023-01-19T01:49:02;0.60;108.98
51305;HTU21D;37392;50.964;6.952;2023-01-19T01:51:49;0.67;108.30
51305;HTU21D;37392;50.964;6.952;2023-01-19T01:54:27;0.74;107.84
51305;HTU21D;37392;50.964;6.952;2023-01-19T01:56:57;0.84;107.18
51305;HTU21D;37392;50.964;6.952;2023-01-19T01:59:31;0.89;106.78
51305;HTU21D;37392;50.964;6.952;2023-01-19T02:02:09;0.79;106.59
51305;HTU21D;37392;50.964;6.952;2023-01-19T02:05:00;0.62;106.89
51305;HTU21D;37392;50.964;6.952;2023-01-19T02:07:43;0.54;107.27
51305;HTU21D;37392;50.964;6.952;2023-01-19T02:10:32;0.42;107.46
51305;HTU21D;37392;50.964;6.952;2023-01-19T02:13:17;0.32;107.92
51305;HTU21D;37392;50.964;6.952;2023-01-19T02:15:53;0.28;108.28
51305;HTU21D;37392;50.964;6.952;2023-01-19T02:18:24;0.32;108.46
51305;HTU21D;37392;50.964;6.952;2023-01-19T02:23:57;0.23;108.55
51305;HTU21D;37392;50.964;6.952;2023-01-19T02:26:32;0.19;108.47
51305;HTU21D;37392;50.964;6.952;2023-01-19T02:31:29;0.08;108.73
51305;HTU21D;37392;50.964;6.952;2023-01-19T02:33:56;0.01;108.85
51305;HTU21D;37392;50.964;6.952;2023-01-19T02:36:26;-0.00;109.30
51305;HTU21D;37392;50.964;6.952;2023-01-19T02:38:55;0.09;109.35
51305;HTU21D;37392;50.964;6.952;2023-01-19T02:41:25;0.16;109.23
51305;HTU21D;37392;50.964;6.952;2023-01-19T02:43:54;0.22;108.98
51305;HTU21D;37392;50.964;6.952;2023-01-19T02:46:21;0.08;108.74
51305;HTU21D;37392;50.964;6.952;2023-01-19T02:48:47;0.04;109.07
51305;HTU21D;37392;50.964;6.952;2023-01-19T02:51:23;0.13;109.40
51305;HTU21D;37392;50.964;6.952;2023-01-19T02:57:59;-0.02;109.30
51305;HTU21D;37392;50.964;6.952;2023-01-19T03:00:52;0.04;110.04
51305;HTU21D;37392;50.964;6.952;2023-01-19T03:03:46;0.20;110.07
51305;HTU21D;37392;50.964;6.952;2023-01-19T03:09:54;0.10;109.39
51305;HTU21D;37392;50.964;6.952;2023-01-19T03:16:09;-0.02;110.10
51305;HTU21D;37392;50.964;6.952;2023-01-19T03:18:22;-0.10;110.06
51305;HTU21D;37392;50.964;6.952;2023-01-19T03:20:51;-0.13;110.29
51305;HTU21D;37392;50.964;6.952;2023-01-19T03:23:23;-0.19;110.22
51305;HTU21D;37392;50.964;6.952;2023-01-19T03:25:52;-0.20;110.39
51305;HTU21D;37392;50.964;6.952;2023-01-19T03:28:20;-0.09;110.55
51305;HTU21D;37392;50.964;6.952;2023-01-19T03:30:53;-0.01;110.15
51305;HTU21D;37392;50.964;6.952;2023-01-19T03:33:28;-0.03;109.98
51305;HTU21D;37392;50.964;6.952;2023-01-19T03:35:59;-0.13;109.76
51305;HTU21D;37392;50.964;6.952;2023-01-19T03:38:33;-0.10;110.05
51305;HTU21D;37392;50.964;6.952;2023-01-19T03:41:01;-0.05;110.42
51305;HTU21D;37392;50.964;6.952;2023-01-19T03:43:27;0.14;110.29
51305;HTU21D;37392;50.964;6.952;2023-01-19T03:45:56;0.34;109.71
51305;HTU21D;37392;50.964;6.952;2023-01-19T03:48:22;0.60;108.75
51305;HTU21D;37392;50.964;6.952;2023-01-19T03:50:48;0.78;107.81
51305;HTU21D;37392;50.964;6.952;2023-01-19T03:53:15;0.88;107.32
51305;HTU21D;37392;50.964;6.952;2023-01-19T03:55:44;0.98;106.87
51305;HTU21D;37392;50.964;6.952;2023-01-19T03:58:11;1.05;106.30
51305;HTU21D;37392;50.964;6.952;2023-01-19T04:00:37;1.10;105.99
51305;HTU21D;37392;50.964;6.952;2023-01-19T04:03:05;1.16;105.82
51305;HTU21D;37392;50.964;6.952;2023-01-19T04:05:31;1.18;105.72
51305;HTU21D;37392;50.964;6.952;2023-01-19T04:07:58;1.19;105.34
51305;HTU21D;37392;50.964;6.952;2023-01-19T04:10:23;1.22;105.37
51305;HTU21D;37392;50.964;6.952;2023-01-19T04:12:55;1.28;105.36
51305;HTU21D;37392;50.964;6.952;2023-01-19T04:15:22;1.33;104.98
51305;HTU21D;37392;50.964;6.952;2023-01-19T04:17:48;1.32;104.82
51305;HTU21D;37392;50.964;6.952;2023-01-19T04:20:13;1.28;104.51
51305;HTU21D;37392;50.964;6.952;2023-01-19T04:22:39;1.19;104.72
51305;HTU21D;37392;50.964;6.952;2023-01-19T04:25:06;1.16;104.94
51305;HTU21D;37392;50.964;6.952;2023-01-19T04:27:32;1.10;104.97
51305;HTU21D;37392;50.964;6.952;2023-01-19T04:29:57;1.13;104.80
51305;HTU21D;37392;50.964;6.952;2023-01-19T04:32:24;1.19;104.80
51305;HTU21D;37392;50.964;6.952;2023-01-19T04:34:50;1.32;104.47
51305;HTU21D;37392;50.964;6.952;2023-01-19T04:37:16;1.46;104.15
51305;HTU21D;37392;50.964;6.952;2023-01-19T04:39:42;1.55;103.60
51305;HTU21D;37392;50.964;6.952;2023-01-19T04:42:07;1.67;103.31
51305;HTU21D;37392;50.964;6.952;2023-01-19T04:44:33;1.75;102.69
51305;HTU21D;37392;50.964;6.952;2023-01-19T04:46:58;1.82;102.56
51305;HTU21D;37392;50.964;6.952;2023-01-19T04:49:24;1.87;102.44
51305;HTU21D;37392;50.964;6.952;2023-01-19T04:51:52;2.01;101.49
51305;HTU21D;37392;50.964;6.952;2023-01-19T04:54:18;2.06;101.56
51305;HTU21D;37392;50.964;6.952;2023-01-19T04:56:44;2.09;102.01
51305;HTU21D;37392;50.964;6.952;2023-01-19T04:59:11;2.12;102.28
51305;HTU21D;37392;50.964;6.952;2023-01-19T05:01:36;2.08;103.22
51305;HTU21D;37392;50.964;6.952;2023-01-19T05:04:02;2.08;103.56
51305;HTU21D;37392;50.964;6.952;2023-01-19T05:06:30;2.09;103.52
51305;HTU21D;37392;50.964;6.952;2023-01-19T05:08:56;2.05;103.80
51305;HTU21D;37392;50.964;6.952;2023-01-19T05:11:21;2.07;104.21
51305;HTU21D;37392;50.964;6.952;2023-01-19T05:13:47;2.07;104.53
51305;HTU21D;37392;50.964;6.952;2023-01-19T05:16:13;2.02;105.11
51305;HTU21D;37392;50.964;6.952;2023-01-19T05:18:39;2.06;105.14
51305;HTU21D;37392;50.964;6.952;2023-01-19T05:21:05;2.06;104.99
51305;HTU21D;37392;50.964;6.952;2023-01-19T05:23:31;2.08;105.50
51305;HTU21D;37392;50.964;6.952;2023-01-19T05:25:58;2.07;105.67
51305;HTU21D;37392;50.964;6.952;2023-01-19T05:28:26;2.12;105.33
51305;HTU21D;37392;50.964;6.952;2023-01-19T05:30:53;2.10;105.80
51305;HTU21D;37392;50.964;6.952;2023-01-19T05:33:20;2.02;106.76
51305;HTU21D;37392;50.964;6.952;2023-01-19T05:35:48;1.99;107.43
51305;HTU21D;37392;50.964;6.952;2023-01-19T05:38:18;1.92;108.16
51305;HTU21D;37392;50.964;6.952;2023-01-19T05:40:44;1.78;109.29
51305;HTU21D;37392;50.964;6.952;2023-01-19T05:43:10;1.65;110.07
51305;HTU21D;37392;50.964;6.952;2023-01-19T05:45:36;1.50;111.71
51305;HTU21D;37392;50.964;6.952;2023-01-19T05:48:07;1.42;112.46
51305;HTU21D;37392;50.964;6.952;2023-01-19T05:50:33;1.40;113.13
51305;HTU21D;37392;50.964;6.952;2023-01-19T05:53:00;1.34;113.97
51305;HTU21D;37392;50.964;6.952;2023-01-19T05:55:26;1.27;115.04
51305;HTU21D;37392;50.964;6.952;2023-01-19T05:57:52;1.22;115.60
51305;HTU21D;37392;50.964;6.952;2023-01-19T06:00:18;1.18;116.14
51305;HTU21D;37392;50.964;6.952;2023-01-19T06:02:44;1.10;117.24
51305;HTU21D;37392;50.964;6.952;2023-01-19T06:05:12;1.07;117.62
51305;HTU21D;37392;50.964;6.952;2023-01-19T06:07:38;1.03;118.18
51305;HTU21D;37392;50.964;6.952;2023-01-19T06:10:04;1.05;118.60
51305;HTU21D;37392;50.964;6.952;2023-01-19T06:12:30;0.98;118.98
51305;HTU21D;37392;50.964;6.952;2023-01-19T06:14:57;0.96;-5.52
51305;HTU21D;37392;50.964;6.952;2023-01-19T06:17:22;0.95;-5.11
51305;HTU21D;37392;50.964;6.952;2023-01-19T06:19:48;0.89;-4.72
51305;HTU21D;37392;50.964;6.952;2023-01-19T06:22:14;0.88;-4.56
51305;HTU21D;37392;50.964;6.952;2023-01-19T06:24:39;0.89;-4.28
51305;HTU21D;37392;50.964;6.952;2023-01-19T06:27:05;0.93;-3.88
51305;HTU21D;37392;50.964;6.952;2023-01-19T06:29:31;0.94;-3.95
51305;HTU21D;37392;50.964;6.952;2023-01-19T06:31:57;0.95;-3.85
51305;HTU21D;37392;50.964;6.952;2023-01-19T06:34:22;0.93;-3.81
51305;HTU21D;37392;50.964;6.952;2023-01-19T06:36:55;0.94;-3.63
51305;HTU21D;37392;50.964;6.952;2023-01-19T06:39:21;0.92;-3.56
51305;HTU21D;37392;50.964;6.952;2023-01-19T06:41:47;0.87;-3.47
51305;HTU21D;37392;50.964;6.952;2023-01-19T06:44:12;0.81;-3.32
51305;HTU21D;37392;50.964;6.952;2023-01-19T06:46:38;0.79;-3.31
51305;HTU21D;37392;50.964;6.952;2023-01-19T06:49:03;0.78;-3.10
51305;HTU21D;37392;50.964;6.952;2023-01-19T06:51:29;0.72;-3.02
51305;HTU21D;37392;50.964;6.952;2023-01-19T06:53:56;0.74;-2.73
51305;HTU21D;37392;50.964;6.952;2023-01-19T06:56:22;0.77;-2.57
51305;HTU21D;37392;50.964;6.952;2023-01-19T06:58:47;0.81;-2.59
51305;HTU21D;37392;50.964;6.952;2023-01-19T07:01:14;0.81;-2.69
51305;HTU21D;37392;50.964;6.952;2023-01-19T07:03:40;0.77;-2.65
51305;HTU21D;37392;50.964;6.952;2023-01-19T07:06:06;0.77;-2.59
51305;HTU21D;37392;50.964;6.952;2023-01-19T07:08:33;0.72;-2.54
51305;HTU21D;37392;50.964;6.952;2023-01-19T07:11:01;0.75;-2.25
51305;HTU21D;37392;50.964;6.952;2023-01-19T07:13:30;0.78;-2.12
51305;HTU21D;37392;50.964;6.952;2023-01-19T07:15:56;0.75;-2.07
51305;HTU21D;37392;50.964;6.952;2023-01-19T07:18:21;0.78;-1.98
51305;HTU21D;37392;50.964;6.952;2023-01-19T07:20:47;0.77;-1.93
51305;HTU21D;37392;50.964;6.952;2023-01-19T07:23:14;0.79;-1.97
51305;HTU21D;37392;50.964;6.952;2023-01-19T07:25:43;0.79;-2.03
51305;HTU21D;37392;50.964;6.952;2023-01-19T07:28:09;0.82;-1.96
51305;HTU21D;37392;50.964;6.952;2023-01-19T07:30:35;0.87;-1.83
51305;HTU21D;37392;50.964;6.952;2023-01-19T07:33:01;0.84;-1.84
51305;HTU21D;37392;50.964;6.952;2023-01-19T07:35:27;0.88;-1.90
51305;HTU21D;37392;50.964;6.952;2023-01-19T07:37:53;0.90;-1.88
51305;HTU21D;37392;50.964;6.952;2023-01-19T07:40:19;0.90;-1.96
51305;HTU21D;37392;50.964;6.952;2023-01-19T07:42:46;0.92;-1.86
51305;HTU21D;37392;50.964;6.952;2023-01-19T07:45:14;0.98;-1.76
51305;HTU21D;37392;50.964;6.952;2023-01-19T07:47:44;0.95;-1.85
51305;HTU21D;37392;50.964;6.952;2023-01-19T07:50:11;1.01;-1.71
51305;HTU21D;37392;50.964;6.952;2023-01-19T07:52:37;0.97;-1.74
51305;HTU21D;37392;50.964;6.952;2023-01-19T07:55:03;1.05;-1.62
51305;HTU21D;37392;50.964;6.952;2023-01-19T07:57:29;1.12;-1.61
51305;HTU21D;37392;50.964;6.952;2023-01-19T07:59:55;1.17;-1.57
51305;HTU21D;37392;50.964;6.952;2023-01-19T08:02:21;1.25;-1.54
51305;HTU21D;37392;50.964;6.952;2023-01-19T08:04:47;1.28;-1.91
51305;HTU21D;37392;50.964;6.952;2023-01-19T08:07:13;1.33;-1.95
51305;HTU21D;37392;50.964;6.952;2023-01-19T08:09:39;1.33;-2.19
51305;HTU21D;37392;50.964;6.952;2023-01-19T08:12:05;1.40;-2.11
51305;HTU21D;37392;50.964;6.952;2023-01-19T08:14:30;1.38;-2.29
51305;HTU21D;37392;50.964;6.952;2023-01-19T08:17:00;1.47;-2.10
51305;HTU21D;37392;50.964;6.952;2023-01-19T08:19:27;1.57;-2.15
51305;HTU21D;37392;50.964;6.952;2023-01-19T08:21:53;1.56;-2.32
51305;HTU21D;37392;50.964;6.952;2023-01-19T08:24:21;1.60;-2.39
51305;HTU21D;37392;50.964;6.952;2023-01-19T08:26:49;1.66;-2.41
51305;HTU21D;37392;50.964;6.952;2023-01-19T08:29:15;1.68;-2.44
51305;HTU21D;37392;50.964;6.952;2023-01-19T08:31:41;1.65;-2.55
51305;HTU21D;37392;50.964;6.952;2023-01-19T08:34:07;1.67;-2.48
51305;HTU21D;37392;50.964;6.952;2023-01-19T08:36:33;1.68;-2.49
51305;HTU21D;37392;50.964;6.952;2023-01-19T08:38:58;1.67;-2.42
51305;HTU21D;37392;50.964;6.952;2023-01-19T08:41:24;1.71;-2.39
51305;HTU21D;37392;50.964;6.952;2023-01-19T08:43:50;1.72;-2.46
51305;HTU21D;37392;50.964;6.952;2023-01-19T08:46:16;1.78;-2.27
51305;HTU21D;37392;50.964;6.952;2023-01-19T08:48:45;1.86;-2.15
51305;HTU21D;37392;50.964;6.952;2023-01-19T08:51:12;1.82;-2.42
51305;HTU21D;37392;50.964;6.952;2023-01-19T08:53:40;1.83;-2.47
51305;HTU21D;37392;50.964;6.952;2023-01-19T08:56:10;1.86;-2.46
51305;HTU21D;37392;50.964;6.952;2023-01-19T08:58:42;1.90;-2.48
51305;HTU21D;37392;50.964;6.952;2023-01-19T09:01:12;1.96;-2.35
51305;HTU21D;37392;50.964;6.952;2023-01-19T09:03:47;2.02;-2.58
51305;HTU21D;37392;50.964;6.952;2023-01-19T09:06:14;2.06;-2.87
51305;HTU21D;37392;50.964;6.952;2023-01-19T09:08:42;2.08;-2.83
51305;HTU21D;37392;50.964;6.952;2023-01-19T09:11:09;2.11;-2.64
51305;HTU21D;37392;50.964;6.952;2023-01-19T09:13:35;2.16;-2.94
51305;HTU21D;37392;50.964;6.952;2023-01-19T09:16:04;2.19;-2.97
51305;HTU21D;37392;50.964;6.952;2023-01-19T09:18:32;2.26;-2.83
51305;HTU21D;37392;50.964;6.952;2023-01-19T09:20:59;2.29;-3.04
51305;HTU21D;37392;50.964;6.952;2023-01-19T09:23:26;2.38;-3.05
51305;HTU21D;37392;50.964;6.952;2023-01-19T09:25:59;2.46;-3.19
51305;HTU21D;37392;50.964;6.952;2023-01-19T09:28:26;2.45;-3.76
51305;HTU21D;37392;50.964;6.952;2023-01-19T09:30:53;2.49;-3.83
51305;HTU21D;37392;50.964;6.952;2023-01-19T09:33:19;2.49;-3.73
51305;HTU21D;37392;50.964;6.952;2023-01-19T09:35:46;2.49;-4.16
51305;HTU21D;37392;50.964;6.952;2023-01-19T09:38:14;2.47;-3.86
51305;HTU21D;37392;50.964;6.952;2023-01-19T09:40:43;2.52;-3.83
51305;HTU21D;37392;50.964;6.952;2023-01-19T09:43:17;2.60;-3.76
51305;HTU21D;37392;50.964;6.952;2023-01-19T09:45:51;2.66;-4.29
51305;HTU21D;37392;50.964;6.952;2023-01-19T09:51:19;2.83;-4.69
51305;HTU21D;37392;50.964;6.952;2023-01-19T09:53:54;2.87;-5.55
51305;HTU21D;37392;50.964;6.952;2023-01-19T09:56:22;2.97;-5.96
51305;HTU21D;37392;50.964;6.952;2023-01-19T09:58:51;3.06;-5.71
51305;HTU21D;37392;50.964;6.952;2023-01-19T10:04:19;3.19;118.86
51305;HTU21D;37392;50.964;6.952;2023-01-19T10:06:56;3.18;118.75
51305;HTU21D;37392;50.964;6.952;2023-01-19T10:15:20;2.99;118.77
51305;HTU21D;37392;50.964;6.952;2023-01-19T10:18:12;2.96;-5.65
51305;HTU21D;37392;50.964;6.952;2023-01-19T10:20:45;2.96;-5.49
51305;HTU21D;37392;50.964;6.952;2023-01-19T10:23:20;2.88;-5.73
51305;HTU21D;37392;50.964;6.952;2023-01-19T10:26:16;2.80;-5.74
51305;HTU21D;37392;50.964;6.952;2023-01-19T10:28:52;2.73;-5.08
51305;HTU21D;37392;50.964;6.952;2023-01-19T10:31:24;2.67;-5.24
51305;HTU21D;37392;50.964;6.952;2023-01-19T10:33:51;2.51;-5.60
51305;HTU21D;37392;50.964;6.952;2023-01-19T10:36:26;2.44;-4.75
51305;HTU21D;37392;50.964;6.952;2023-01-19T10:38:54;2.52;-4.28
51305;HTU21D;37392;50.964;6.952;2023-01-19T10:41:41;2.62;-3.85
51305;HTU21D;37392;50.964;6.952;2023-01-19T10:44:09;2.72;-3.83
51305;HTU21D;37392;50.964;6.952;2023-01-19T10:46:43;2.81;-3.56
51305;HTU21D;37392;50.964;6.952;2023-01-19T10:49:26;2.93;-3.75
51305;HTU21D;37392;50.964;6.952;2023-01-19T10:52:00;3.04;-3.91
51305;HTU21D;37392;50.964;6.952;2023-01-19T10:54:28;3.19;-4.34
51305;HTU21D;37392;50.964;6.952;2023-01-19T10:57:03;3.33;-4.31
51305;HTU21D;37392;50.964;6.952;2023-01-19T11:02:16;3.57;-4.87
51305;HTU21D;37392;50.964;6.952;2023-01-19T11:04:48;3.68;-5.27
51305;HTU21D;37392;50.964;6.952;2023-01-19T11:07:22;3.78;-5.65
51305;HTU21D;37392;50.964;6.952;2023-01-19T11:15:22;4.02;118.05
51305;HTU21D;37392;50.964;6.952;2023-01-19T11:17:49;4.02;118.17
51305;HTU21D;37392;50.964;6.952;2023-01-19T11:23:32;4.18;118.28
51305;HTU21D;37392;50.964;6.952;2023-01-19T11:26:02;4.29;117.87
51305;HTU21D;37392;50.964;6.952;2023-01-19T11:28:39;4.37;117.46
51305;HTU21D;37392;50.964;6.952;2023-01-19T11:34:01;4.52;115.96
51305;HTU21D;37392;50.964;6.952;2023-01-19T11:36:32;4.52;114.83
51305;HTU21D;37392;50.964;6.952;2023-01-19T11:39:21;4.64;115.86
51305;HTU21D;37392;50.964;6.952;2023-01-19T11:41:51;4.76;114.83
51305;HTU21D;37392;50.964;6.952;2023-01-19T11:47:11;4.77;115.28
51305;HTU21D;37392;50.964;6.952;2023-01-19T11:49:49;4.84;115.84
51305;HTU21D;37392;50.964;6.952;2023-01-19T11:52:36;4.83;115.70
51305;HTU21D;37392;50.964;6.952;2023-01-19T11:55:21;4.86;114.45
51305;HTU21D;37392;50.964;6.952;2023-01-19T11:57:57;4.94;115.73
51305;HTU21D;37392;50.964;6.952;2023-01-19T12:00:24;5.05;115.99
51305;HTU21D;37392;50.964;6.952;2023-01-19T12:02:58;5.19;115.82
51305;HTU21D;37392;50.964;6.952;2023-01-19T12:05:34;5.33;114.38
51305;HTU21D;37392;50.964;6.952;2023-01-19T12:08:04;5.49;113.51
51305;HTU21D;37392;50.964;6.952;2023-01-19T12:10:34;5.72;112.98
51305;HTU21D;37392;50.964;6.952;2023-01-19T12:13:02;5.99;112.94
51305;HTU21D;37392;50.964;6.952;2023-01-19T12:15:34;6.23;112.00
51305;HTU21D;37392;50.964;6.952;2023-01-19T12:18:05;5.98;108.86
51305;HTU21D;37392;50.964;6.952;2023-01-19T12:20:42;6.12;109.52
51305;HTU21D;37392;50.964;6.952;2023-01-19T12:28:38;6.48;110.03
51305;HTU21D;37392;50.964;6.952;2023-01-19T12:31:05;6.46;110.38
51305;HTU21D;37392;50.964;6.952;2023-01-19T12:33:33;6.44;110.63
51305;HTU21D;37392;50.964;6.952;2023-01-19T12:36:02;6.39;109.80
51305;HTU21D;37392;50.964;6.952;2023-01-19T12:38:47;6.31;110.94
51305;HTU21D;37392;50.964;6.952;2023-01-19T12:41:23;6.29;110.87
51305;HTU21D;37392;50.964;6.952;2023-01-19T12:46:37;6.27;110.16
51305;HTU21D;37392;50.964;6.952;2023-01-19T12:49:20;6.00;108.98
51305;HTU21D;37392;50.964;6.952;2023-01-19T12:51:47;5.90;109.30
51305;HTU21D;37392;50.964;6.952;2023-01-19T12:54:30;5.87;109.74
51305;HTU21D;37392;50.964;6.952;2023-01-19T12:57:08;6.02;111.01
51305;HTU21D;37392;50.964;6.952;2023-01-19T12:59:54;6.00;106.98
51305;HTU21D;37392;50.964;6.952;2023-01-19T13:05:22;6.13;107.95
51305;HTU21D;37392;50.964;6.952;2023-01-19T13:15:59;6.04;109.91
51305;HTU21D;37392;50.964;6.952;2023-01-19T13:18:46;5.68;110.36
51305;HTU21D;37392;50.964;6.952;2023-01-19T13:21:29;5.19;111.77
51305;HTU21D;37392;50.964;6.952;2023-01-19T13:23:57;4.97;113.32
51305;HTU21D;37392;50.964;6.952;2023-01-19T13:26:26;4.91;115.13
51305;HTU21D;37392;50.964;6.952;2023-01-19T13:31:42;4.68;114.69
51305;HTU21D;37392;50.964;6.952;2023-01-19T13:34:18;4.68;115.05
51305;HTU21D;37392;50.964;6.952;2023-01-19T13:36:50;4.71;115.57
51305;HTU21D;37392;50.964;6.952;2023-01-19T13:42:07;4.77;115.12
51305;HTU21D;37392;50.964;6.952;2023-01-19T13:44:47;4.71;115.77
51305;HTU21D;37392;50.964;6.952;2023-01-19T13:47:24;4.76;117.30
51305;HTU21D;37392;50.964;6.952;2023-01-19T13:49:57;4.78;116.28
51305;HTU21D;37392;50.964;6.952;2023-01-19T13:52:24;4.80;116.08
51305;HTU21D;37392;50.964;6.952;2023-01-19T13:54:52;4.81;116.40
51305;HTU21D;37392;50.964;6.952;2023-01-19T14:02:59;4.86;113.38
51305;HTU21D;37392;50.964;6.952;2023-01-19T14:05:42;4.91;113.51
51305;HTU21D;37392;50.964;6.952;2023-01-19T14:13:34;4.90;112.61
51305;HTU21D;37392;50.964;6.952;2023-01-19T14:16:13;4.81;111.68
51305;HTU21D;37392;50.964;6.952;2023-01-19T14:18:40;4.75;112.45
51305;HTU21D;37392;50.964;6.952;2023-01-19T14:21:10;4.61;112.17
51305;HTU21D;37392;50.964;6.952;2023-01-19T14:23:44;4.46;111.88
51305;HTU21D;37392;50.964;6.952;2023-01-19T14:26:40;4.32;113.07
51305;HTU21D;37392;50.964;6.952;2023-01-19T14:31:46;4.35;114.07
51305;HTU21D;37392;50.964;6.952;2023-01-19T14:36:59;4.35;114.70
51305;HTU21D;37392;50.964;6.952;2023-01-19T14:39:28;4.34;115.48
51305;HTU21D;37392;50.964;6.952;2023-01-19T14:41:58;4.32;114.52
51305;HTU21D;37392;50.964;6.952;2023-01-19T14:44:29;4.30;114.00
51305;HTU21D;37392;50.964;6.952;2023-01-19T14:47:00;4.26;114.32
51305;HTU21D;37392;50.964;6.952;2023-01-19T14:49:35;4.24;114.03
51305;HTU21D;37392;50.964;6.952;2023-01-19T14:52:36;4.27;114.54
51305;HTU21D;37392;50.964;6.952;2023-01-19T14:55:06;4.29;115.13
51305;HTU21D;37392;50.964;6.952;2023-01-19T14:57:42;4.31;114.20
51305;HTU21D;37392;50.964;6.952;2023-01-19T15:00:14;4.29;114.10
51305;HTU21D;37392;50.964;6.952;2023-01-19T15:02:45;4.27;113.42
51305;HTU21D;37392;50.964;6.952;2023-01-19T15:05:11;4.32;114.10
51305;HTU21D;37392;50.964;6.952;2023-01-19T15:07:39;4.32;114.29
51305;HTU21D;37392;50.964;6.952;2023-01-19T15:10:25;4.34;113.08
51305;HTU21D;37392;50.964;6.952;2023-01-19T15:12:52;4.35;113.05
51305;HTU21D;37392;50.964;6.952;2023-01-19T15:15:23;4.36;113.79
51305;HTU21D;37392;50.964;6.952;2023-01-19T15:17:52;4.38;113.01
51305;HTU21D;37392;50.964;6.952;2023-01-19T15:20:20;4.36;113.11
51305;HTU21D;37392;50.964;6.952;2023-01-19T15:22:46;4.38;113.83
51305;HTU21D;37392;50.964;6.952;2023-01-19T15:25:14;4.37;111.96
51305;HTU21D;37392;50.964;6.952;2023-01-19T15:27:42;4.33;110.63
51305;HTU21D;37392;50.964;6.952;2023-01-19T15:30:19;4.26;111.13
51305;HTU21D;37392;50.964;6.952;2023-01-19T15:32:47;4.23;110.68
51305;HTU21D;37392;50.964;6.952;2023-01-19T15:35:18;4.22;112.48
51305;HTU21D;37392;50.964;6.952;2023-01-19T15:37:45;4.17;110.13
51305;HTU21D;37392;50.964;6.952;2023-01-19T15:40:11;4.10;110.22
51305;HTU21D;37392;50.964;6.952;2023-01-19T15:42:37;4.06;111.92
51305;HTU21D;37392;50.964;6.952;2023-01-19T15:45:33;4.02;111.94
51305;HTU21D;37392;50.964;6.952;2023-01-19T15:48:13;3.95;111.23
51305;HTU21D;37392;50.964;6.952;2023-01-19T15:50:43;3.95;111.39
51305;HTU21D;37392;50.964;6.952;2023-01-19T15:53:14;3.93;111.39
51305;HTU21D;37392;50.964;6.952;2023-01-19T15:55:47;3.90;111.28
51305;HTU21D;37392;50.964;6.952;2023-01-19T15:58:13;3.88;111.98
51305;HTU21D;37392;50.964;6.952;2023-01-19T16:00:39;3.87;111.26
51305;HTU21D;37392;50.964;6.952;2023-01-19T16:03:05;3.88;111.33
51305;HTU21D;37392;50.964;6.952;2023-01-19T16:05:31;3.83;110.55
51305;HTU21D;37392;50.964;6.952;2023-01-19T16:07:57;3.80;110.27
51305;HTU21D;37392;50.964;6.952;2023-01-19T16:10:23;3.79;110.10
51305;HTU21D;37392;50.964;6.952;2023-01-19T16:12:49;3.77;108.20
51305;HTU21D;37392;50.964;6.952;2023-01-19T16:15:15;3.78;107.93
51305;HTU21D;37392;50.964;6.952;2023-01-19T16:17:41;3.74;109.24
51305;HTU21D;37392;50.964;6.952;2023-01-19T16:20:08;3.73;109.21
51305;HTU21D;37392;50.964;6.952;2023-01-19T16:22:34;3.67;109.97
51305;HTU21D;37392;50.964;6.952;2023-01-19T16:25:01;3.62;110.65
51305;HTU21D;37392;50.964;6.952;2023-01-19T16:27:27;3.61;110.23
51305;HTU21D;37392;50.964;6.952;2023-01-19T16:29:53;3.59;111.05
51305;HTU21D;37392;50.964;6.952;2023-01-19T16:32:19;3.58;110.05
51305;HTU21D;37392;50.964;6.952;2023-01-19T16:34:45;3.56;108.33
51305;HTU21D;37392;50.964;6.952;2023-01-19T16:37:10;3.53;108.07
51305;HTU21D;37392;50.964;6.952;2023-01-19T16:39:36;3.48;108.13
51305;HTU21D;37392;50.964;6.952;2023-01-19T16:42:02;3.43;106.61
51305;HTU21D;37392;50.964;6.952;2023-01-19T16:44:28;3.42;107.76
51305;HTU21D;37392;50.964;6.952;2023-01-19T16:46:53;3.47;106.40
51305;HTU21D;37392;50.964;6.952;2023-01-19T16:49:21;3.46;106.73
51305;HTU21D;37392;50.964;6.952;2023-01-19T16:51:49;3.44;108.01
51305;HTU21D;37392;50.964;6.952;2023-01-19T16:54:19;3.46;108.13
51305;HTU21D;37392;50.964;6.952;2023-01-19T16:56:49;3.42;107.91
51305;HTU21D;37392;50.964;6.952;2023-01-19T16:59:16;3.42;107.28
51305;HTU21D;37392;50.964;6.952;2023-01-19T17:01:42;3.42;107.71